createdAt,value
2023-04-15T00:00:39.241Z,94137.00
2023-04-15T00:04:39.310Z,94143.00
2023-04-15T00:08:39.245Z,94141.00
2023-04-15T00:12:38.850Z,94135.00
2023-04-15T00:16:39.350Z,94143.00
2023-04-15T00:20:39.242Z,94141.00
2023-04-15T00:24:39.269Z,94133.00
2023-04-15T00:28:38.905Z,94123.00
2023-04-15T00:32:39.049Z,94131.00
2023-04-15T00:36:39.345Z,94135.00
2023-04-15T00:40:39.271Z,94133.00
2023-04-15T00:44:39.269Z,94131.00
2023-04-15T00:48:39.037Z,94119.00
2023-04-15T00:52:39.116Z,94123.00
2023-04-15T00:56:39.726Z,94133.00
2023-04-15T01:00:39.230Z,94135.00
2023-04-15T01:04:39.399Z,94123.00
2023-04-15T01:08:39.143Z,94123.00
2023-04-15T01:12:39.108Z,94133.00
2023-04-15T01:16:39.202Z,94123.00
2023-04-15T01:20:39.312Z,94131.00
2023-04-15T01:24:39.763Z,94131.00
2023-04-15T01:28:39.378Z,94137.00
2023-04-15T01:32:39.839Z,94135.00
2023-04-15T01:36:39.770Z,94133.00
2023-04-15T01:40:39.794Z,94133.00
2023-04-15T01:44:39.795Z,94139.00
2023-04-15T01:48:39.411Z,94135.00
2023-04-15T01:52:39.494Z,94123.00
2023-04-15T01:56:39.790Z,94133.00
2023-04-15T02:00:39.808Z,94123.00
2023-04-15T02:04:39.824Z,94133.00
2023-04-15T02:08:39.678Z,94131.00
2023-04-15T02:12:39.776Z,94131.00
2023-04-15T02:16:40.336Z,94133.00
2023-04-15T02:20:40.275Z,94137.00
2023-04-15T02:24:39.842Z,94137.00
2023-04-15T02:28:39.873Z,94131.00
2023-04-15T02:32:40.480Z,94123.00
2023-04-15T02:36:39.955Z,94131.00
2023-04-15T02:40:40.322Z,94123.00
2023-04-15T02:44:40.399Z,94121.00
2023-04-15T02:48:40.117Z,94123.00
2023-04-15T02:52:40.298Z,94121.00
2023-04-15T02:56:40.308Z,94117.00
2023-04-15T03:00:52.313Z,94121.00
2023-04-15T03:04:52.800Z,94121.00
2023-04-15T03:08:40.127Z,94121.00
2023-04-15T03:12:40.295Z,94131.00
2023-04-15T03:16:40.088Z,94133.00
2023-04-15T03:20:40.166Z,94121.00
2023-04-15T03:24:50.746Z,94121.00
2023-04-15T03:28:39.981Z,94117.00
2023-04-15T03:32:40.028Z,94117.00
2023-04-15T03:36:39.941Z,94119.00
2023-04-15T03:40:39.874Z,94123.00
2023-04-15T03:44:39.996Z,94135.00
2023-04-15T03:48:40.149Z,94121.00
2023-04-15T03:52:40.347Z,94131.00
2023-04-15T03:56:40.535Z,94133.00
2023-04-15T04:00:40.634Z,94131.00
2023-04-15T04:04:40.799Z,94133.00
2023-04-15T04:08:41.042Z,94139.00
2023-04-15T04:12:41.384Z,94135.00
2023-04-15T04:16:41.348Z,94135.00
2023-04-15T04:20:41.383Z,94137.00
2023-04-15T04:24:41.517Z,94143.00
2023-04-15T04:28:41.839Z,94139.00
2023-04-15T04:32:41.792Z,94143.00
2023-04-15T04:36:41.864Z,94151.00
2023-04-15T04:40:41.980Z,94153.00
2023-04-15T04:44:42.078Z,94161.00
2023-04-15T04:48:42.365Z,94159.00
2023-04-15T04:52:42.380Z,94161.00
2023-04-15T04:56:42.365Z,94161.00
2023-04-15T05:00:42.425Z,94159.00
2023-04-15T05:04:42.568Z,94164.00
2023-04-15T05:08:42.730Z,94170.00
2023-04-15T05:12:43.503Z,94164.00
2023-04-15T05:16:43.490Z,94162.00
2023-04-15T05:20:43.227Z,94166.00
2023-04-15T05:24:43.530Z,94162.00
2023-04-15T05:28:43.875Z,94166.00
2023-04-15T05:32:44.057Z,94172.00
2023-04-15T05:36:43.892Z,94172.00
2023-04-15T05:40:44.074Z,94174.00
2023-04-15T05:44:44.386Z,94176.00
2023-04-15T05:48:44.392Z,94174.00
2023-04-15T05:52:44.889Z,94180.00
2023-04-15T05:56:44.678Z,94186.00
2023-04-15T06:00:44.831Z,94182.00
2023-04-15T06:04:45.378Z,94188.00
2023-04-15T06:08:56.916Z,94196.00
2023-04-15T06:12:45.013Z,94190.00
2023-04-15T06:21:04.970Z,94184.00
2023-04-15T06:25:15.244Z,94184.00
2023-04-15T06:29:04.953Z,94184.00
2023-04-15T06:33:05.217Z,94186.00
2023-04-15T06:37:06.324Z,94186.00
2023-04-15T06:41:04.886Z,94186.00
2023-04-15T06:45:15.250Z,94188.00
2023-04-15T06:49:04.773Z,94182.00
2023-04-15T06:53:04.741Z,94186.00
2023-04-15T06:57:04.707Z,94186.00
2023-04-15T07:01:04.703Z,94184.00
2023-04-15T07:05:04.792Z,94180.00
2023-04-15T07:09:05.700Z,94174.00
2023-04-15T07:13:05.272Z,94174.00
2023-04-15T07:17:04.849Z,94174.00
2023-04-15T07:21:04.672Z,94180.00
2023-04-15T07:33:44.216Z,94170.00
2023-04-15T07:37:44.198Z,94172.00
2023-04-15T07:41:44.267Z,94174.00
2023-04-15T07:45:44.455Z,94168.00
2023-04-15T07:54:17.125Z,94162.00
2023-04-15T07:58:04.422Z,94161.00
2023-04-15T08:02:04.392Z,94155.00
2023-04-15T08:06:04.631Z,94155.00
2023-04-15T08:10:04.796Z,94155.00
2023-04-15T08:14:04.323Z,94155.00
2023-04-15T08:18:04.634Z,94151.00
2023-04-15T08:22:04.143Z,94149.00
2023-04-15T08:26:04.169Z,94149.00
2023-04-15T08:30:05.076Z,94149.00
2023-04-15T08:34:04.190Z,94149.00
2023-04-15T08:38:03.998Z,94147.00
2023-04-15T08:42:03.913Z,94145.00
2023-04-15T08:46:04.652Z,94143.00
2023-04-15T08:50:04.092Z,94141.00
2023-04-15T08:54:04.127Z,94135.00
2023-04-15T08:58:04.149Z,94137.00
2023-04-15T09:02:03.882Z,94139.00
2023-04-15T09:14:43.590Z,94133.00
2023-04-15T09:18:53.886Z,94119.00
2023-04-15T09:22:43.483Z,94117.00
2023-04-15T09:26:43.881Z,94117.00
2023-04-15T09:30:43.446Z,94114.00
2023-04-15T09:34:43.859Z,94114.00
2023-04-15T09:38:43.410Z,94114.00
2023-04-15T09:42:43.461Z,94110.00
2023-04-15T09:46:43.702Z,94114.00
2023-04-15T09:55:18.176Z,94104.00
2023-04-15T09:59:13.621Z,94102.00
2023-04-15T10:03:03.441Z,94100.00
2023-04-15T10:07:03.615Z,94098.00
2023-04-15T10:11:03.290Z,94098.00
2023-04-15T10:15:03.704Z,94096.00
2023-04-15T10:19:03.415Z,94096.00
2023-04-15T10:23:03.343Z,94100.00
2023-04-15T10:27:03.633Z,94100.00
2023-04-15T10:31:03.709Z,94100.00
2023-04-15T10:35:03.629Z,94098.00
2023-04-15T10:39:03.635Z,94098.00
2023-04-15T10:43:03.271Z,94104.00
2023-04-15T10:47:03.111Z,94108.00
2023-04-15T10:51:03.093Z,94102.00
2023-04-15T10:55:03.058Z,94100.00
2023-04-15T11:16:22.583Z,94090.00
2023-04-15T11:20:22.899Z,94088.00
2023-04-15T11:24:22.919Z,94092.00
2023-04-15T11:28:22.426Z,94094.00
2023-04-15T11:32:22.450Z,94096.00
2023-04-15T11:36:22.396Z,94098.00
2023-04-15T11:40:22.498Z,94100.00
2023-04-15T11:44:22.285Z,94098.00
2023-04-15T11:48:22.333Z,94106.00
2023-04-15T11:52:22.619Z,94110.00
2023-04-15T11:56:22.543Z,94112.00
2023-04-15T12:00:22.953Z,94119.00
2023-04-15T12:04:25.175Z,94119.00
2023-04-15T12:08:22.421Z,94117.00
2023-04-15T12:12:22.418Z,94119.00
2023-04-15T12:16:22.408Z,94121.00
2023-04-15T12:20:22.509Z,94121.00
2023-04-15T12:24:22.310Z,94131.00
2023-04-15T12:28:22.474Z,94131.00
2023-04-15T12:32:22.318Z,94135.00
2023-04-15T12:36:22.502Z,94141.00
2023-04-15T12:42:00.683Z,94151.00
2023-04-15T12:46:00.845Z,94149.00
2023-04-15T12:50:00.444Z,94151.00
2023-04-15T12:54:00.480Z,94153.00
2023-04-15T12:58:00.759Z,94159.00
2023-04-15T13:06:20.108Z,94172.00
2023-04-15T13:10:20.074Z,94176.00
2023-04-15T13:14:19.992Z,94180.00
2023-04-15T13:18:20.493Z,94182.00
2023-04-15T13:22:20.330Z,94186.00
2023-04-15T13:26:19.930Z,94194.00
2023-04-15T13:30:19.869Z,94196.00
2023-04-15T13:34:20.491Z,94200.00
2023-04-15T13:38:19.835Z,94200.00
2023-04-15T13:42:19.790Z,94202.00
2023-04-15T13:46:19.939Z,94208.00
2023-04-15T13:50:19.725Z,94211.00
2023-04-15T13:54:19.880Z,94217.00
2023-04-15T13:58:19.857Z,94223.00
2023-04-15T14:02:19.903Z,94227.00
2023-04-15T14:06:19.869Z,94223.00
2023-04-15T14:10:19.600Z,94231.00
2023-04-15T14:14:19.846Z,94233.00
2023-04-15T14:18:19.890Z,94233.00
2023-04-15T14:22:19.863Z,94235.00
2023-04-15T14:26:19.413Z,94237.00
2023-04-15T14:30:19.346Z,94241.00
2023-04-15T14:41:15.880Z,94259.00
2023-04-15T15:04:07.832Z,94284.00
2023-04-15T15:07:57.460Z,94288.00
2023-04-15T15:11:57.485Z,94290.00
2023-04-15T15:15:57.070Z,94296.00
2023-04-15T15:19:57.517Z,94306.00
2023-04-15T15:23:57.281Z,94310.00
2023-04-15T15:27:57.553Z,94317.00
2023-04-15T15:31:58.074Z,94329.00
2023-04-15T15:35:57.952Z,94337.00
2023-04-15T15:39:58.460Z,94345.00
2023-04-15T15:43:58.606Z,94345.00
2023-04-15T15:47:58.528Z,94353.00
2023-04-15T15:51:58.643Z,94362.00
2023-04-15T16:07:48.881Z,94378.00
2023-04-15T16:11:48.791Z,94390.00
2023-04-15T16:15:48.821Z,94394.00
2023-04-15T16:19:56.851Z,94400.00
2023-04-15T16:23:49.771Z,94409.00
2023-04-15T16:28:00.882Z,94415.00
2023-04-15T16:31:49.719Z,94417.00
2023-04-15T16:35:48.807Z,94419.00
2023-04-15T16:39:48.828Z,94429.00
2023-04-15T16:43:48.933Z,94435.00
2023-04-15T16:52:34.843Z,94452.00
2023-04-15T16:56:34.936Z,94462.00
2023-04-15T17:00:35.101Z,94464.00
2023-04-15T17:08:54.757Z,94468.00
2023-04-15T17:12:54.835Z,94476.00
2023-04-15T17:16:54.722Z,94472.00
2023-04-15T17:20:54.520Z,94480.00
2023-04-15T17:24:54.661Z,94490.00
2023-04-15T17:28:54.791Z,94500.00
2023-04-15T17:32:54.862Z,94500.00
2023-04-15T17:36:54.611Z,94509.00
2023-04-15T17:40:54.641Z,94521.00
2023-04-15T17:44:54.996Z,94527.00
2023-04-15T17:48:54.924Z,94533.00
2023-04-15T17:52:54.638Z,94539.00
2023-04-15T17:56:54.773Z,94547.00
2023-04-15T18:00:54.805Z,94556.00
2023-04-15T18:04:55.985Z,94556.00
2023-04-15T18:17:34.885Z,94582.00
2023-04-15T18:21:34.602Z,94586.00
2023-04-15T18:25:35.041Z,94592.00
2023-04-15T18:29:34.541Z,94596.00
2023-04-15T18:33:35.154Z,94601.00
2023-04-15T18:37:34.601Z,94609.00
2023-04-15T18:41:34.505Z,94613.00
2023-04-15T18:45:34.512Z,94615.00
2023-04-15T18:49:34.545Z,94621.00
2023-04-15T18:53:34.518Z,94625.00
2023-04-15T18:57:34.840Z,94633.00
2023-04-15T19:01:34.423Z,94646.00
2023-04-15T19:05:34.571Z,94654.00
2023-04-15T19:09:34.236Z,94658.00
2023-04-15T19:13:34.628Z,94666.00
2023-04-15T19:17:34.172Z,94678.00
2023-04-15T19:21:34.299Z,94686.00
2023-04-15T19:25:35.008Z,94692.00
2023-04-15T19:29:34.746Z,94692.00
2023-04-15T19:33:35.026Z,94698.00
2023-04-15T19:37:48.884Z,94698.00
2023-04-15T19:45:55.204Z,94703.00
2023-04-15T19:49:55.027Z,94711.00
2023-04-15T19:53:55.101Z,94709.00
2023-04-15T19:57:54.732Z,94719.00
2023-04-15T20:01:55.264Z,94727.00
2023-04-15T20:05:55.068Z,94733.00
2023-04-15T20:09:54.642Z,94731.00
2023-04-15T20:13:55.065Z,94737.00
2023-04-15T20:17:54.583Z,94746.00
2023-04-15T20:21:54.583Z,94746.00
2023-04-15T20:25:54.557Z,94750.00
2023-04-15T20:29:54.487Z,94750.00
2023-04-15T20:33:54.547Z,94758.00
2023-04-15T20:37:54.437Z,94754.00
2023-04-15T20:41:54.373Z,94762.00
2023-04-15T20:45:54.620Z,94762.00
2023-04-15T20:49:54.535Z,94768.00
2023-04-15T20:53:54.244Z,94776.00
2023-04-15T20:57:54.293Z,94774.00
2023-04-15T21:01:54.659Z,94778.00
2023-04-15T21:05:54.746Z,94786.00
2023-04-15T21:09:54.266Z,94786.00
2023-04-15T21:13:54.293Z,94784.00
2023-04-15T21:17:54.580Z,94790.00
2023-04-15T21:21:54.692Z,94786.00
2023-04-15T21:25:55.074Z,94793.00
2023-04-15T21:29:54.834Z,94799.00
2023-04-15T21:33:54.861Z,94803.00
2023-04-15T21:37:55.112Z,94807.00
2023-04-15T21:41:55.121Z,94805.00
2023-04-15T21:46:24.176Z,94805.00
2023-04-15T21:49:56.601Z,94807.00
2023-04-15T21:53:55.260Z,94807.00
2023-04-15T21:57:55.375Z,94813.00
2023-04-15T22:01:56.190Z,94811.00
2023-04-15T22:05:56.089Z,94817.00
2023-04-15T22:09:56.091Z,94821.00
2023-04-15T22:13:56.133Z,94827.00
2023-04-15T22:17:56.583Z,94829.00
2023-04-15T22:21:56.689Z,94831.00
2023-04-15T22:25:57.196Z,94825.00
2023-04-15T22:29:56.861Z,94835.00
2023-04-15T22:33:57.212Z,94842.00
2023-04-15T22:37:57.667Z,94846.00
2023-04-15T22:41:57.570Z,94850.00
2023-04-15T22:45:58.322Z,94854.00
2023-04-15T22:49:57.933Z,94864.00
2023-04-15T22:53:58.039Z,94858.00
2023-04-15T22:57:58.616Z,94860.00
2023-04-15T23:01:58.645Z,94862.00
2023-04-15T23:05:59.087Z,94862.00
2023-04-15T23:14:04.665Z,94866.00
2023-04-15T23:18:03.188Z,94868.00
2023-04-15T23:22:03.142Z,94868.00
2023-04-15T23:26:03.162Z,94870.00
2023-04-15T23:30:02.868Z,94874.00
2023-04-15T23:34:03.137Z,94878.00
2023-04-15T23:38:03.173Z,94878.00
2023-04-15T23:42:03.158Z,94878.00
2023-04-15T23:46:03.103Z,94878.00
2023-04-15T23:50:02.909Z,94880.00
2023-04-15T23:54:03.138Z,94880.00
2023-04-15T23:58:03.109Z,94876.00
